KRAL/RAL METAR and TAF weather

Enter ICAO airport designator
Station Type Date Time Source
KRAL METAR 2020/07/11 01:53 UTC NOAA

KRAL 110153Z 27012KT 10SM CLR 32/09 A2992 RMK AO2 SLP115 T03220094


Station Type Date Time Source
KRAL Decoded METAR 2020/07/11 01:53 UTC NOAA

RIVERSIDE MUNICIPAL AIRPORT , CA, United States (KRAL) 33-57N 117-27W 252M
Jul 10, 2020 - 09:53 PM EDT / 2020.07.11 0153 UTC
Wind: from the W (270 degrees) at 14 MPH (12 KT):0
Visibility: 10 mile(s):0
Sky conditions: clear
Temperature: 90.0 F (32.2 C)
Dew Point: 48.9 F (9.4 C)
Relative Humidity: 24%
Pressure (altimeter): 29.92 in. Hg (1013 hPa)
ob: KRAL 110153Z 27012KT 10SM CLR 32/09 A2992 RMK AO2 SLP115 T03220094
cycle: 2

Station Type Date Time Source
KRAL TAF UTC NOAA

Error!

Example: see airport list